map of MYJ home
MYJ - Airport
Location
City:  Matsuyama, Skikoku, Ehime, Japan
Name:Matsuyama Airport
ICAO:RJOM
IATA:MYJ

Details
Type:Airport (Aerodrome, Airfield)
Use:Public/Civil
Latitude:3349'38"N (33.827222)
Longitude:13241'59"E (132.699722)
Datum:WGS 1984
Elevation:25 ft (8 m)
Variation:7.51W (WMM2015 magnetic declination)
-0.07 annual change
Runways:1
Longest:8200 × 150 ft (2499 × 45.5 m), paved

Time
Time Zone:UTC+9
Local Time:

Weather
METAR:RJOM 121200Z 29011KT 9999 FEW030 SCT040 BKN050 03/M06 Q1024
TAF:RJOM 121106Z 1212/1318 29013KT 9999 FEW025 SCT040
BECMG 1315/1318 36006KT

Related Locations
Nearby:
Farthest:SSMT: 12156 mi / 19562 km
Mostardas, RS, BR

Find:

   beyond  
but within

Other Information
Maps:
NOTAMs:
Links:
Sources:

  
flag of Japan
flag of Ehime
flag of Matsuyama
  

Sectional Chart

Flight Planning
at skyvector.com

Satellite Image

Google Maps Satellite view

 

Copyright © 2004-2017 Karl L. Swartz. All rights reserved.
The Great Circle Mapper name and logo are trademarks of the Great Circle Mapper.
All other trademarks mentioned herein belong to their respective owners.
Please see credits for attibutions and further copyright information.

  Follow gcmap on Facebook Follow gcmap on Twitter Follow gcmap on Google+ GCmap on LinkedIn

hCard Microformat

Geo Microformat